sensor_id;sensor_type;location;lat;lon;timestamp;P1;durP1;ratioP1;P2;durP2;ratioP2
9958;SDS011;5019;48.012;7.812;2023-01-01T00:01:46;2.50;;;1.90;;
9958;SDS011;5019;48.012;7.812;2023-01-01T00:04:13;4.00;;;2.63;;
9958;SDS011;5019;48.012;7.812;2023-01-01T00:06:40;4.40;;;3.10;;
9958;SDS011;5019;48.012;7.812;2023-01-01T00:09:07;4.43;;;3.13;;
9958;SDS011;5019;48.012;7.812;2023-01-01T00:11:52;5.27;;;3.17;;
9958;SDS011;5019;48.012;7.812;2023-01-01T00:14:18;6.10;;;4.80;;
9958;SDS011;5019;48.012;7.812;2023-01-01T00:16:44;3.77;;;3.07;;
9958;SDS011;5019;48.012;7.812;2023-01-01T00:19:10;3.37;;;3.07;;
9958;SDS011;5019;48.012;7.812;2023-01-01T00:21:36;2.80;;;2.13;;
9958;SDS011;5019;48.012;7.812;2023-01-01T00:24:02;2.93;;;2.13;;
9958;SDS011;5019;48.012;7.812;2023-01-01T00:26:28;2.20;;;1.87;;
9958;SDS011;5019;48.012;7.812;2023-01-01T00:28:54;2.23;;;1.70;;
9958;SDS011;5019;48.012;7.812;2023-01-01T00:31:20;2.73;;;2.37;;
9958;SDS011;5019;48.012;7.812;2023-01-01T00:33:51;5.17;;;2.77;;
9958;SDS011;5019;48.012;7.812;2023-01-01T00:36:17;2.80;;;2.30;;
9958;SDS011;5019;48.012;7.812;2023-01-01T00:38:44;4.33;;;2.60;;
9958;SDS011;5019;48.012;7.812;2023-01-01T00:41:10;2.47;;;2.37;;
9958;SDS011;5019;48.012;7.812;2023-01-01T00:43:37;2.67;;;1.80;;
9958;SDS011;5019;48.012;7.812;2023-01-01T00:46:03;2.50;;;2.27;;
9958;SDS011;5019;48.012;7.812;2023-01-01T00:48:29;7.93;;;3.30;;
9958;SDS011;5019;48.012;7.812;2023-01-01T00:50:55;3.03;;;2.60;;
9958;SDS011;5019;48.012;7.812;2023-01-01T00:53:22;4.27;;;2.43;;
9958;SDS011;5019;48.012;7.812;2023-01-01T00:55:48;2.50;;;2.23;;
9958;SDS011;5019;48.012;7.812;2023-01-01T00:58:15;3.53;;;2.73;;
9958;SDS011;5019;48.012;7.812;2023-01-01T01:00:41;6.80;;;4.67;;
9958;SDS011;5019;48.012;7.812;2023-01-01T01:03:07;9.90;;;5.53;;
9958;SDS011;5019;48.012;7.812;2023-01-01T01:05:33;3.50;;;3.20;;
9958;SDS011;5019;48.012;7.812;2023-01-01T01:08:01;9.93;;;5.33;;
9958;SDS011;5019;48.012;7.812;2023-01-01T01:10:27;3.83;;;2.40;;
9958;SDS011;5019;48.012;7.812;2023-01-01T01:12:54;5.20;;;4.60;;
9958;SDS011;5019;48.012;7.812;2023-01-01T01:15:20;3.70;;;3.23;;
9958;SDS011;5019;48.012;7.812;2023-01-01T01:17:46;2.73;;;2.53;;
9958;SDS011;5019;48.012;7.812;2023-01-01T01:20:12;4.17;;;2.03;;
9958;SDS011;5019;48.012;7.812;2023-01-01T01:22:38;2.30;;;2.07;;
9958;SDS011;5019;48.012;7.812;2023-01-01T01:25:05;2.27;;;2.07;;
9958;SDS011;5019;48.012;7.812;2023-01-01T01:27:31;1.60;;;1.50;;
9958;SDS011;5019;48.012;7.812;2023-01-01T01:29:57;3.27;;;1.97;;
9958;SDS011;5019;48.012;7.812;2023-01-01T01:32:23;6.80;;;2.00;;
9958;SDS011;5019;48.012;7.812;2023-01-01T01:34:49;4.57;;;2.30;;
9958;SDS011;5019;48.012;7.812;2023-01-01T01:37:15;3.50;;;3.07;;
9958;SDS011;5019;48.012;7.812;2023-01-01T01:39:41;2.30;;;2.10;;
9958;SDS011;5019;48.012;7.812;2023-01-01T01:42:10;5.50;;;2.13;;
9958;SDS011;5019;48.012;7.812;2023-01-01T01:47:23;4.07;;;2.30;;
9958;SDS011;5019;48.012;7.812;2023-01-01T01:50:01;1.50;;;1.40;;
9958;SDS011;5019;48.012;7.812;2023-01-01T01:52:28;3.20;;;2.43;;
9958;SDS011;5019;48.012;7.812;2023-01-01T01:54:55;6.30;;;2.10;;
9958;SDS011;5019;48.012;7.812;2023-01-01T01:57:22;6.03;;;1.90;;
9958;SDS011;5019;48.012;7.812;2023-01-01T01:59:49;2.23;;;1.80;;
9958;SDS011;5019;48.012;7.812;2023-01-01T02:02:20;2.57;;;1.77;;
9958;SDS011;5019;48.012;7.812;2023-01-01T02:04:48;2.40;;;2.20;;
9958;SDS011;5019;48.012;7.812;2023-01-01T02:07:14;2.40;;;1.90;;
9958;SDS011;5019;48.012;7.812;2023-01-01T02:09:40;2.03;;;1.83;;
9958;SDS011;5019;48.012;7.812;2023-01-01T02:12:06;3.70;;;1.70;;
9958;SDS011;5019;48.012;7.812;2023-01-01T02:14:32;5.10;;;1.70;;
9958;SDS011;5019;48.012;7.812;2023-01-01T02:17:02;2.23;;;2.03;;
9958;SDS011;5019;48.012;7.812;2023-01-01T02:19:51;1.70;;;1.53;;
9958;SDS011;5019;48.012;7.812;2023-01-01T02:30:15;2.40;;;1.40;;
9958;SDS011;5019;48.012;7.812;2023-01-01T02:32:43;5.60;;;1.40;;
9958;SDS011;5019;48.012;7.812;2023-01-01T02:35:13;2.07;;;1.40;;
9958;SDS011;5019;48.012;7.812;2023-01-01T02:37:59;2.00;;;1.60;;
9958;SDS011;5019;48.012;7.812;2023-01-01T02:40:25;2.30;;;2.10;;
9958;SDS011;5019;48.012;7.812;2023-01-01T02:42:52;1.57;;;1.30;;
9958;SDS011;5019;48.012;7.812;2023-01-01T02:45:20;1.40;;;1.30;;
9958;SDS011;5019;48.012;7.812;2023-01-01T02:47:46;2.10;;;1.90;;
9958;SDS011;5019;48.012;7.812;2023-01-01T02:50:13;1.60;;;1.50;;
9958;SDS011;5019;48.012;7.812;2023-01-01T02:55:33;1.47;;;1.30;;
9958;SDS011;5019;48.012;7.812;2023-01-01T03:00:50;1.93;;;1.40;;
9958;SDS011;5019;48.012;7.812;2023-01-01T03:03:27;2.60;;;1.60;;
9958;SDS011;5019;48.012;7.812;2023-01-01T03:06:06;2.50;;;1.60;;
9958;SDS011;5019;48.012;7.812;2023-01-01T03:11:21;1.57;;;1.33;;
9958;SDS011;5019;48.012;7.812;2023-01-01T03:14:02;1.57;;;1.47;;
9958;SDS011;5019;48.012;7.812;2023-01-01T03:21:39;2.10;;;1.50;;
9958;SDS011;5019;48.012;7.812;2023-01-01T03:24:06;1.33;;;1.23;;
9958;SDS011;5019;48.012;7.812;2023-01-01T03:26:34;1.87;;;1.77;;
9958;SDS011;5019;48.012;7.812;2023-01-01T03:29:01;1.77;;;1.57;;
9958;SDS011;5019;48.012;7.812;2023-01-01T03:31:29;2.70;;;1.43;;
9958;SDS011;5019;48.012;7.812;2023-01-01T03:33:57;2.60;;;1.97;;
9958;SDS011;5019;48.012;7.812;2023-01-01T03:36:29;1.43;;;1.27;;
9958;SDS011;5019;48.012;7.812;2023-01-01T03:39:00;2.50;;;1.47;;
9958;SDS011;5019;48.012;7.812;2023-01-01T03:46:40;4.63;;;2.13;;
9958;SDS011;5019;48.012;7.812;2023-01-01T03:49:07;3.13;;;1.60;;
9958;SDS011;5019;48.012;7.812;2023-01-01T03:54:01;2.60;;;1.37;;
9958;SDS011;5019;48.012;7.812;2023-01-01T03:58:57;1.10;;;1.00;;
9958;SDS011;5019;48.012;7.812;2023-01-01T04:01:26;2.90;;;1.43;;
9958;SDS011;5019;48.012;7.812;2023-01-01T04:03:54;1.30;;;1.20;;
9958;SDS011;5019;48.012;7.812;2023-01-01T04:06:20;1.33;;;1.17;;
9958;SDS011;5019;48.012;7.812;2023-01-01T04:08:47;0.80;;;0.80;;
9958;SDS011;5019;48.012;7.812;2023-01-01T04:11:19;1.10;;;0.97;;
9958;SDS011;5019;48.012;7.812;2023-01-01T04:14:05;2.63;;;0.90;;
9958;SDS011;5019;48.012;7.812;2023-01-01T04:16:31;3.07;;;1.10;;
9958;SDS011;5019;48.012;7.812;2023-01-01T04:18:57;1.57;;;1.47;;
9958;SDS011;5019;48.012;7.812;2023-01-01T04:21:23;1.60;;;1.43;;
9958;SDS011;5019;48.012;7.812;2023-01-01T04:23:49;2.03;;;1.53;;
9958;SDS011;5019;48.012;7.812;2023-01-01T04:26:15;2.83;;;1.23;;
9958;SDS011;5019;48.012;7.812;2023-01-01T04:28:41;3.53;;;1.97;;
9958;SDS011;5019;48.012;7.812;2023-01-01T04:31:08;1.30;;;1.20;;
9958;SDS011;5019;48.012;7.812;2023-01-01T04:33:34;1.77;;;1.30;;
9958;SDS011;5019;48.012;7.812;2023-01-01T04:36:04;1.23;;;1.13;;
9958;SDS011;5019;48.012;7.812;2023-01-01T04:38:31;2.60;;;1.37;;
9958;SDS011;5019;48.012;7.812;2023-01-01T04:40:58;1.57;;;1.20;;
9958;SDS011;5019;48.012;7.812;2023-01-01T04:43:24;1.57;;;1.47;;
9958;SDS011;5019;48.012;7.812;2023-01-01T04:45:56;1.43;;;1.33;;
9958;SDS011;5019;48.012;7.812;2023-01-01T04:48:23;1.70;;;1.10;;
9958;SDS011;5019;48.012;7.812;2023-01-01T04:50:52;2.60;;;1.50;;
9958;SDS011;5019;48.012;7.812;2023-01-01T04:53:18;1.73;;;1.50;;
9958;SDS011;5019;48.012;7.812;2023-01-01T04:55:44;1.03;;;0.90;;
9958;SDS011;5019;48.012;7.812;2023-01-01T04:58:10;1.73;;;1.13;;
9958;SDS011;5019;48.012;7.812;2023-01-01T05:00:36;1.67;;;1.37;;
9958;SDS011;5019;48.012;7.812;2023-01-01T05:03:02;1.20;;;1.10;;
9958;SDS011;5019;48.012;7.812;2023-01-01T05:05:28;1.67;;;1.17;;
9958;SDS011;5019;48.012;7.812;2023-01-01T05:07:54;0.97;;;0.97;;
9958;SDS011;5019;48.012;7.812;2023-01-01T05:10:20;1.80;;;0.90;;
9958;SDS011;5019;48.012;7.812;2023-01-01T05:12:46;1.43;;;1.10;;
9958;SDS011;5019;48.012;7.812;2023-01-01T05:15:12;1.17;;;1.07;;
9958;SDS011;5019;48.012;7.812;2023-01-01T05:17:38;2.30;;;2.10;;
9958;SDS011;5019;48.012;7.812;2023-01-01T05:20:04;2.43;;;2.00;;
9958;SDS011;5019;48.012;7.812;2023-01-01T05:22:30;1.50;;;1.40;;
9958;SDS011;5019;48.012;7.812;2023-01-01T05:24:56;1.80;;;1.70;;
9958;SDS011;5019;48.012;7.812;2023-01-01T05:27:22;3.70;;;1.90;;
9958;SDS011;5019;48.012;7.812;2023-01-01T05:29:48;1.70;;;1.60;;
9958;SDS011;5019;48.012;7.812;2023-01-01T05:32:14;1.83;;;1.73;;
9958;SDS011;5019;48.012;7.812;2023-01-01T05:34:40;4.90;;;1.53;;
9958;SDS011;5019;48.012;7.812;2023-01-01T05:37:06;1.10;;;1.00;;
9958;SDS011;5019;48.012;7.812;2023-01-01T05:39:32;1.63;;;1.30;;
9958;SDS011;5019;48.012;7.812;2023-01-01T05:41:58;3.90;;;2.63;;
9958;SDS011;5019;48.012;7.812;2023-01-01T05:44:24;1.93;;;1.70;;
9958;SDS011;5019;48.012;7.812;2023-01-01T05:46:50;1.10;;;1.00;;
9958;SDS011;5019;48.012;7.812;2023-01-01T05:49:17;2.20;;;1.40;;
9958;SDS011;5019;48.012;7.812;2023-01-01T05:51:43;2.20;;;1.47;;
9958;SDS011;5019;48.012;7.812;2023-01-01T05:54:09;1.43;;;1.20;;
9958;SDS011;5019;48.012;7.812;2023-01-01T05:56:35;1.57;;;1.30;;
9958;SDS011;5019;48.012;7.812;2023-01-01T05:59:01;3.73;;;1.60;;
9958;SDS011;5019;48.012;7.812;2023-01-01T06:01:28;7.73;;;1.90;;
9958;SDS011;5019;48.012;7.812;2023-01-01T06:03:55;1.30;;;1.20;;
9958;SDS011;5019;48.012;7.812;2023-01-01T06:06:22;1.30;;;1.20;;
9958;SDS011;5019;48.012;7.812;2023-01-01T06:08:49;2.00;;;1.80;;
9958;SDS011;5019;48.012;7.812;2023-01-01T06:11:15;1.67;;;1.23;;
9958;SDS011;5019;48.012;7.812;2023-01-01T06:13:41;2.13;;;1.63;;
9958;SDS011;5019;48.012;7.812;2023-01-01T06:16:08;1.67;;;1.57;;
9958;SDS011;5019;48.012;7.812;2023-01-01T06:18:34;2.60;;;2.13;;
9958;SDS011;5019;48.012;7.812;2023-01-01T06:21:07;2.70;;;1.17;;
9958;SDS011;5019;48.012;7.812;2023-01-01T06:23:34;1.83;;;1.63;;
9958;SDS011;5019;48.012;7.812;2023-01-01T06:26:07;1.27;;;1.17;;
9958;SDS011;5019;48.012;7.812;2023-01-01T06:28:33;2.60;;;1.53;;
9958;SDS011;5019;48.012;7.812;2023-01-01T06:31:00;2.00;;;1.20;;
9958;SDS011;5019;48.012;7.812;2023-01-01T06:33:26;3.23;;;1.23;;
9958;SDS011;5019;48.012;7.812;2023-01-01T06:35:52;2.10;;;1.83;;
9958;SDS011;5019;48.012;7.812;2023-01-01T06:38:18;5.13;;;2.10;;
9958;SDS011;5019;48.012;7.812;2023-01-01T06:40:53;4.63;;;2.43;;
9958;SDS011;5019;48.012;7.812;2023-01-01T06:43:19;2.93;;;2.47;;
9958;SDS011;5019;48.012;7.812;2023-01-01T06:45:45;3.57;;;2.03;;
9958;SDS011;5019;48.012;7.812;2023-01-01T06:48:11;2.80;;;2.50;;
9958;SDS011;5019;48.012;7.812;2023-01-01T06:50:37;3.50;;;2.63;;
9958;SDS011;5019;48.012;7.812;2023-01-01T06:53:03;3.33;;;2.40;;
9958;SDS011;5019;48.012;7.812;2023-01-01T06:55:29;2.23;;;2.03;;
9958;SDS011;5019;48.012;7.812;2023-01-01T07:07:05;9.50;;;2.90;;
9958;SDS011;5019;48.012;7.812;2023-01-01T07:09:31;5.20;;;3.77;;
9958;SDS011;5019;48.012;7.812;2023-01-01T07:11:58;2.70;;;2.50;;
9958;SDS011;5019;48.012;7.812;2023-01-01T07:14:24;5.60;;;2.67;;
9958;SDS011;5019;48.012;7.812;2023-01-01T07:16:50;3.53;;;2.10;;
9958;SDS011;5019;48.012;7.812;2023-01-01T07:19:15;7.40;;;2.50;;
9958;SDS011;5019;48.012;7.812;2023-01-01T07:21:43;5.03;;;3.40;;
9958;SDS011;5019;48.012;7.812;2023-01-01T07:24:13;3.30;;;2.27;;
9958;SDS011;5019;48.012;7.812;2023-01-01T07:26:39;3.43;;;2.90;;
9958;SDS011;5019;48.012;7.812;2023-01-01T07:29:06;4.40;;;3.03;;
9958;SDS011;5019;48.012;7.812;2023-01-01T07:31:37;5.93;;;2.90;;
9958;SDS011;5019;48.012;7.812;2023-01-01T07:34:04;5.00;;;3.33;;
9958;SDS011;5019;48.012;7.812;2023-01-01T07:36:30;4.63;;;2.93;;
9958;SDS011;5019;48.012;7.812;2023-01-01T07:38:56;5.43;;;2.47;;
9958;SDS011;5019;48.012;7.812;2023-01-01T07:41:22;3.50;;;2.20;;
9958;SDS011;5019;48.012;7.812;2023-01-01T07:43:48;3.30;;;2.60;;
9958;SDS011;5019;48.012;7.812;2023-01-01T07:46:15;2.60;;;1.70;;
9958;SDS011;5019;48.012;7.812;2023-01-01T07:48:42;4.33;;;2.83;;
9958;SDS011;5019;48.012;7.812;2023-01-01T07:51:08;3.23;;;2.20;;
9958;SDS011;5019;48.012;7.812;2023-01-01T07:53:34;2.70;;;2.20;;
9958;SDS011;5019;48.012;7.812;2023-01-01T07:56:00;4.30;;;2.90;;
9958;SDS011;5019;48.012;7.812;2023-01-01T07:58:27;2.67;;;2.27;;
9958;SDS011;5019;48.012;7.812;2023-01-01T08:00:53;10.13;;;2.90;;
9958;SDS011;5019;48.012;7.812;2023-01-01T08:03:19;3.00;;;2.00;;
9958;SDS011;5019;48.012;7.812;2023-01-01T08:05:45;4.63;;;2.90;;
9958;SDS011;5019;48.012;7.812;2023-01-01T08:08:11;6.50;;;3.27;;
9958;SDS011;5019;48.012;7.812;2023-01-01T08:10:37;2.70;;;2.30;;
9958;SDS011;5019;48.012;7.812;2023-01-01T08:13:04;2.90;;;2.27;;
9958;SDS011;5019;48.012;7.812;2023-01-01T08:15:31;3.70;;;2.90;;
9958;SDS011;5019;48.012;7.812;2023-01-01T08:17:58;5.87;;;2.30;;
9958;SDS011;5019;48.012;7.812;2023-01-01T08:20:25;2.33;;;1.90;;
9958;SDS011;5019;48.012;7.812;2023-01-01T08:22:51;2.97;;;2.13;;
9958;SDS011;5019;48.012;7.812;2023-01-01T08:25:17;4.50;;;2.60;;
9958;SDS011;5019;48.012;7.812;2023-01-01T08:27:43;3.50;;;2.33;;
9958;SDS011;5019;48.012;7.812;2023-01-01T08:30:09;3.53;;;2.70;;
9958;SDS011;5019;48.012;7.812;2023-01-01T08:32:36;3.63;;;2.73;;
9958;SDS011;5019;48.012;7.812;2023-01-01T08:35:02;4.40;;;2.10;;
9958;SDS011;5019;48.012;7.812;2023-01-01T08:37:28;5.27;;;2.80;;
9958;SDS011;5019;48.012;7.812;2023-01-01T08:39:54;3.60;;;1.93;;
9958;SDS011;5019;48.012;7.812;2023-01-01T08:42:20;4.67;;;2.50;;
9958;SDS011;5019;48.012;7.812;2023-01-01T08:44:46;5.40;;;2.30;;
9958;SDS011;5019;48.012;7.812;2023-01-01T08:47:19;2.63;;;1.90;;
9958;SDS011;5019;48.012;7.812;2023-01-01T08:49:46;4.40;;;2.20;;
9958;SDS011;5019;48.012;7.812;2023-01-01T08:52:12;2.50;;;2.30;;
9958;SDS011;5019;48.012;7.812;2023-01-01T08:54:38;3.63;;;2.20;;
9958;SDS011;5019;48.012;7.812;2023-01-01T08:57:04;3.00;;;2.13;;
9958;SDS011;5019;48.012;7.812;2023-01-01T08:59:31;5.93;;;2.33;;
9958;SDS011;5019;48.012;7.812;2023-01-01T09:01:57;2.10;;;2.00;;
9958;SDS011;5019;48.012;7.812;2023-01-01T09:04:23;3.07;;;2.37;;
9958;SDS011;5019;48.012;7.812;2023-01-01T09:06:49;2.20;;;2.00;;
9958;SDS011;5019;48.012;7.812;2023-01-01T09:09:16;2.70;;;2.37;;
9958;SDS011;5019;48.012;7.812;2023-01-01T09:11:52;4.40;;;2.37;;
9958;SDS011;5019;48.012;7.812;2023-01-01T09:14:19;4.40;;;3.17;;
9958;SDS011;5019;48.012;7.812;2023-01-01T09:16:45;2.80;;;2.10;;
9958;SDS011;5019;48.012;7.812;2023-01-01T09:19:11;4.20;;;2.90;;
9958;SDS011;5019;48.012;7.812;2023-01-01T09:21:37;4.77;;;2.60;;
9958;SDS011;5019;48.012;7.812;2023-01-01T09:24:03;5.57;;;1.93;;
9958;SDS011;5019;48.012;7.812;2023-01-01T09:26:29;3.30;;;2.10;;
9958;SDS011;5019;48.012;7.812;2023-01-01T09:28:56;4.70;;;1.93;;
9958;SDS011;5019;48.012;7.812;2023-01-01T09:31:22;4.47;;;2.07;;
9958;SDS011;5019;48.012;7.812;2023-01-01T09:33:48;1.80;;;1.70;;
9958;SDS011;5019;48.012;7.812;2023-01-01T09:36:35;2.30;;;1.63;;
9958;SDS011;5019;48.012;7.812;2023-01-01T09:39:01;2.00;;;1.90;;
9958;SDS011;5019;48.012;7.812;2023-01-01T09:46:31;1.53;;;1.43;;
9958;SDS011;5019;48.012;7.812;2023-01-01T09:48:58;2.90;;;2.70;;
9958;SDS011;5019;48.012;7.812;2023-01-01T09:51:25;3.53;;;1.50;;
9958;SDS011;5019;48.012;7.812;2023-01-01T09:54:17;1.67;;;1.57;;
9958;SDS011;5019;48.012;7.812;2023-01-01T09:56:39;1.20;;;1.10;;
9958;SDS011;5019;48.012;7.812;2023-01-01T09:59:07;9.13;;;1.57;;
9958;SDS011;5019;48.012;7.812;2023-01-01T10:01:52;2.77;;;2.57;;
9958;SDS011;5019;48.012;7.812;2023-01-01T10:06:49;2.77;;;1.90;;
9958;SDS011;5019;48.012;7.812;2023-01-01T10:11:49;1.70;;;1.50;;
9958;SDS011;5019;48.012;7.812;2023-01-01T10:14:38;1.97;;;1.40;;
9958;SDS011;5019;48.012;7.812;2023-01-01T10:17:38;1.60;;;1.50;;
9958;SDS011;5019;48.012;7.812;2023-01-01T10:19:57;1.20;;;1.10;;
9958;SDS011;5019;48.012;7.812;2023-01-01T10:22:43;6.40;;;1.63;;
9958;SDS011;5019;48.012;7.812;2023-01-01T10:25:16;1.67;;;1.40;;
9958;SDS011;5019;48.012;7.812;2023-01-01T10:27:44;2.00;;;1.80;;
9958;SDS011;5019;48.012;7.812;2023-01-01T10:30:16;1.40;;;1.23;;
9958;SDS011;5019;48.012;7.812;2023-01-01T10:32:45;5.23;;;2.03;;
9958;SDS011;5019;48.012;7.812;2023-01-01T10:35:12;3.60;;;1.53;;
9958;SDS011;5019;48.012;7.812;2023-01-01T10:37:39;2.80;;;1.50;;
9958;SDS011;5019;48.012;7.812;2023-01-01T10:40:09;2.20;;;1.43;;
9958;SDS011;5019;48.012;7.812;2023-01-01T10:42:38;1.60;;;1.27;;
9958;SDS011;5019;48.012;7.812;2023-01-01T10:45:04;1.73;;;1.10;;
9958;SDS011;5019;48.012;7.812;2023-01-01T10:47:30;3.23;;;1.43;;
9958;SDS011;5019;48.012;7.812;2023-01-01T10:52:23;12.10;;;1.67;;
9958;SDS011;5019;48.012;7.812;2023-01-01T10:54:50;1.77;;;0.90;;
9958;SDS011;5019;48.012;7.812;2023-01-01T10:59:51;2.40;;;1.90;;
9958;SDS011;5019;48.012;7.812;2023-01-01T11:02:24;1.50;;;1.40;;
9958;SDS011;5019;48.012;7.812;2023-01-01T11:04:52;1.80;;;0.90;;
9958;SDS011;5019;48.012;7.812;2023-01-01T11:07:36;1.60;;;1.50;;
9958;SDS011;5019;48.012;7.812;2023-01-01T11:10:04;2.40;;;1.20;;
9958;SDS011;5019;48.012;7.812;2023-01-01T11:12:34;2.83;;;1.50;;
9958;SDS011;5019;48.012;7.812;2023-01-01T11:15:00;2.03;;;1.30;;
9958;SDS011;5019;48.012;7.812;2023-01-01T11:17:34;1.30;;;1.20;;
9958;SDS011;5019;48.012;7.812;2023-01-01T11:20:01;1.30;;;1.20;;
9958;SDS011;5019;48.012;7.812;2023-01-01T11:22:44;2.43;;;1.37;;
9958;SDS011;5019;48.012;7.812;2023-01-01T11:27:50;2.00;;;1.10;;
9958;SDS011;5019;48.012;7.812;2023-01-01T11:30:20;1.80;;;1.60;;
9958;SDS011;5019;48.012;7.812;2023-01-01T11:32:48;4.73;;;1.50;;
9958;SDS011;5019;48.012;7.812;2023-01-01T11:35:18;5.13;;;1.77;;
9958;SDS011;5019;48.012;7.812;2023-01-01T11:37:44;2.63;;;1.60;;
9958;SDS011;5019;48.012;7.812;2023-01-01T11:40:16;2.37;;;2.17;;
9958;SDS011;5019;48.012;7.812;2023-01-01T11:42:47;2.80;;;2.27;;
9958;SDS011;5019;48.012;7.812;2023-01-01T11:47:42;1.80;;;1.70;;
9958;SDS011;5019;48.012;7.812;2023-01-01T11:52:37;1.87;;;1.40;;
9958;SDS011;5019;48.012;7.812;2023-01-01T11:57:45;1.17;;;1.07;;
9958;SDS011;5019;48.012;7.812;2023-01-01T12:00:15;1.37;;;0.87;;
9958;SDS011;5019;48.012;7.812;2023-01-01T12:02:47;2.70;;;1.10;;
9958;SDS011;5019;48.012;7.812;2023-01-01T12:05:16;1.87;;;1.60;;
9958;SDS011;5019;48.012;7.812;2023-01-01T12:07:45;1.60;;;1.20;;
9958;SDS011;5019;48.012;7.812;2023-01-01T12:10:21;1.90;;;1.23;;
9958;SDS011;5019;48.012;7.812;2023-01-01T12:13:04;1.53;;;1.10;;
9958;SDS011;5019;48.012;7.812;2023-01-01T12:15:35;1.53;;;1.20;;
9958;SDS011;5019;48.012;7.812;2023-01-01T12:18:05;2.53;;;1.30;;
9958;SDS011;5019;48.012;7.812;2023-01-01T12:20:37;2.33;;;1.30;;
9958;SDS011;5019;48.012;7.812;2023-01-01T12:23:06;3.47;;;1.23;;
9958;SDS011;5019;48.012;7.812;2023-01-01T12:25:38;1.83;;;1.50;;
9958;SDS011;5019;48.012;7.812;2023-01-01T12:33:26;5.20;;;1.90;;
9958;SDS011;5019;48.012;7.812;2023-01-01T12:46:19;2.33;;;1.57;;
9958;SDS011;5019;48.012;7.812;2023-01-01T12:51:52;1.90;;;1.30;;
9958;SDS011;5019;48.012;7.812;2023-01-01T12:54:32;2.00;;;1.27;;
9958;SDS011;5019;48.012;7.812;2023-01-01T12:59:27;1.57;;;1.20;;
9958;SDS011;5019;48.012;7.812;2023-01-01T13:01:55;2.10;;;1.20;;
9958;SDS011;5019;48.012;7.812;2023-01-01T13:04:22;3.50;;;1.47;;
9958;SDS011;5019;48.012;7.812;2023-01-01T13:07:10;2.10;;;2.00;;
9958;SDS011;5019;48.012;7.812;2023-01-01T13:09:35;6.23;;;1.50;;
9958;SDS011;5019;48.012;7.812;2023-01-01T13:14:38;2.83;;;1.70;;
9958;SDS011;5019;48.012;7.812;2023-01-01T13:17:04;1.80;;;1.40;;
9958;SDS011;5019;48.012;7.812;2023-01-01T13:19:41;1.80;;;1.27;;
9958;SDS011;5019;48.012;7.812;2023-01-01T13:25:36;5.23;;;1.60;;
9958;SDS011;5019;48.012;7.812;2023-01-01T13:33:16;1.20;;;1.10;;
9958;SDS011;5019;48.012;7.812;2023-01-01T13:35:56;2.10;;;1.20;;
9958;SDS011;5019;48.012;7.812;2023-01-01T13:43:51;1.23;;;1.13;;
9958;SDS011;5019;48.012;7.812;2023-01-01T13:46:19;2.20;;;1.33;;
9958;SDS011;5019;48.012;7.812;2023-01-01T13:57:12;3.93;;;1.40;;
9958;SDS011;5019;48.012;7.812;2023-01-01T14:02:35;1.27;;;1.10;;
9958;SDS011;5019;48.012;7.812;2023-01-01T14:05:06;3.53;;;1.93;;
9958;SDS011;5019;48.012;7.812;2023-01-01T14:17:58;3.07;;;1.67;;
9958;SDS011;5019;48.012;7.812;2023-01-01T14:20:32;2.20;;;1.90;;
9958;SDS011;5019;48.012;7.812;2023-01-01T14:23:00;4.63;;;2.30;;
9958;SDS011;5019;48.012;7.812;2023-01-01T14:25:29;2.07;;;1.60;;
9958;SDS011;5019;48.012;7.812;2023-01-01T14:27:56;1.63;;;1.47;;
9958;SDS011;5019;48.012;7.812;2023-01-01T14:30:23;2.00;;;1.80;;
9958;SDS011;5019;48.012;7.812;2023-01-01T14:32:59;1.83;;;1.30;;
9958;SDS011;5019;48.012;7.812;2023-01-01T14:35:25;4.10;;;1.47;;
9958;SDS011;5019;48.012;7.812;2023-01-01T14:37:51;1.83;;;0.90;;
9958;SDS011;5019;48.012;7.812;2023-01-01T14:40:19;1.37;;;1.27;;
9958;SDS011;5019;48.012;7.812;2023-01-01T14:43:01;2.00;;;1.40;;
9958;SDS011;5019;48.012;7.812;2023-01-01T14:45:30;2.00;;;1.60;;
9958;SDS011;5019;48.012;7.812;2023-01-01T14:47:57;4.20;;;1.47;;
9958;SDS011;5019;48.012;7.812;2023-01-01T14:52:52;10.77;;;8.20;;
9958;SDS011;5019;48.012;7.812;2023-01-01T14:55:20;5.03;;;2.50;;
9958;SDS011;5019;48.012;7.812;2023-01-01T14:57:47;2.60;;;1.60;;
9958;SDS011;5019;48.012;7.812;2023-01-01T15:00:22;4.53;;;1.30;;
9958;SDS011;5019;48.012;7.812;2023-01-01T15:02:49;1.53;;;1.43;;
9958;SDS011;5019;48.012;7.812;2023-01-01T15:05:27;1.40;;;1.30;;
9958;SDS011;5019;48.012;7.812;2023-01-01T15:08:01;2.77;;;1.60;;
9958;SDS011;5019;48.012;7.812;2023-01-01T15:10:29;9.90;;;2.33;;
9958;SDS011;5019;48.012;7.812;2023-01-01T15:12:56;4.20;;;1.80;;
9958;SDS011;5019;48.012;7.812;2023-01-01T15:15:41;2.20;;;1.90;;
9958;SDS011;5019;48.012;7.812;2023-01-01T15:18:42;1.73;;;1.63;;
9958;SDS011;5019;48.012;7.812;2023-01-01T15:21:01;1.60;;;1.40;;
9958;SDS011;5019;48.012;7.812;2023-01-01T15:23:28;1.90;;;1.63;;
9958;SDS011;5019;48.012;7.812;2023-01-01T15:25:54;4.93;;;1.97;;
9958;SDS011;5019;48.012;7.812;2023-01-01T15:28:20;4.80;;;2.37;;
9958;SDS011;5019;48.012;7.812;2023-01-01T15:30:55;5.23;;;2.17;;
9958;SDS011;5019;48.012;7.812;2023-01-01T15:33:22;4.43;;;2.63;;
9958;SDS011;5019;48.012;7.812;2023-01-01T15:35:49;2.37;;;2.03;;
9958;SDS011;5019;48.012;7.812;2023-01-01T15:38:22;4.07;;;2.10;;
9958;SDS011;5019;48.012;7.812;2023-01-01T15:40:50;3.40;;;2.30;;
9958;SDS011;5019;48.012;7.812;2023-01-01T15:43:28;1.90;;;1.80;;
9958;SDS011;5019;48.012;7.812;2023-01-01T15:48:30;4.23;;;1.60;;
9958;SDS011;5019;48.012;7.812;2023-01-01T15:53:22;2.50;;;1.80;;
9958;SDS011;5019;48.012;7.812;2023-01-01T15:58:22;2.30;;;1.90;;
9958;SDS011;5019;48.012;7.812;2023-01-01T16:00:54;3.33;;;1.87;;
9958;SDS011;5019;48.012;7.812;2023-01-01T16:03:21;6.17;;;2.20;;
9958;SDS011;5019;48.012;7.812;2023-01-01T16:05:49;3.10;;;2.13;;
9958;SDS011;5019;48.012;7.812;2023-01-01T16:08:16;7.33;;;3.40;;
9958;SDS011;5019;48.012;7.812;2023-01-01T16:10:44;3.80;;;2.63;;
9958;SDS011;5019;48.012;7.812;2023-01-01T16:13:10;4.03;;;2.57;;
9958;SDS011;5019;48.012;7.812;2023-01-01T16:15:37;2.90;;;1.87;;
9958;SDS011;5019;48.012;7.812;2023-01-01T16:18:03;5.57;;;2.63;;
9958;SDS011;5019;48.012;7.812;2023-01-01T16:20:29;2.73;;;2.53;;
9958;SDS011;5019;48.012;7.812;2023-01-01T16:22:55;4.10;;;2.40;;
9958;SDS011;5019;48.012;7.812;2023-01-01T16:25:21;11.33;;;3.73;;
9958;SDS011;5019;48.012;7.812;2023-01-01T16:27:47;5.50;;;3.63;;
9958;SDS011;5019;48.012;7.812;2023-01-01T16:30:14;7.33;;;2.50;;
9958;SDS011;5019;48.012;7.812;2023-01-01T16:32:40;4.70;;;3.63;;
9958;SDS011;5019;48.012;7.812;2023-01-01T16:35:10;5.13;;;2.50;;
9958;SDS011;5019;48.012;7.812;2023-01-01T16:37:36;4.00;;;3.10;;
9958;SDS011;5019;48.012;7.812;2023-01-01T16:40:02;4.67;;;2.07;;
9958;SDS011;5019;48.012;7.812;2023-01-01T16:42:29;3.77;;;2.53;;
9958;SDS011;5019;48.012;7.812;2023-01-01T16:44:55;2.33;;;2.00;;
9958;SDS011;5019;48.012;7.812;2023-01-01T16:47:21;5.93;;;3.10;;
9958;SDS011;5019;48.012;7.812;2023-01-01T16:49:47;3.47;;;2.83;;
9958;SDS011;5019;48.012;7.812;2023-01-01T16:52:13;4.93;;;3.30;;
9958;SDS011;5019;48.012;7.812;2023-01-01T16:54:39;4.73;;;2.40;;
9958;SDS011;5019;48.012;7.812;2023-01-01T16:57:05;2.40;;;1.93;;
9958;SDS011;5019;48.012;7.812;2023-01-01T16:59:31;6.10;;;2.70;;
9958;SDS011;5019;48.012;7.812;2023-01-01T17:01:57;4.57;;;2.90;;
9958;SDS011;5019;48.012;7.812;2023-01-01T17:04:23;3.10;;;2.80;;
9958;SDS011;5019;48.012;7.812;2023-01-01T17:06:50;3.33;;;3.00;;
9958;SDS011;5019;48.012;7.812;2023-01-01T17:09:16;7.07;;;3.50;;
9958;SDS011;5019;48.012;7.812;2023-01-01T17:11:42;12.10;;;3.60;;
9958;SDS011;5019;48.012;7.812;2023-01-01T17:14:09;5.40;;;2.60;;
9958;SDS011;5019;48.012;7.812;2023-01-01T17:16:36;3.30;;;2.57;;
9958;SDS011;5019;48.012;7.812;2023-01-01T17:19:02;9.73;;;5.13;;
9958;SDS011;5019;48.012;7.812;2023-01-01T17:21:29;9.50;;;5.00;;
9958;SDS011;5019;48.012;7.812;2023-01-01T17:23:55;7.13;;;4.60;;
9958;SDS011;5019;48.012;7.812;2023-01-01T17:26:22;7.40;;;4.40;;
9958;SDS011;5019;48.012;7.812;2023-01-01T17:28:49;10.37;;;6.80;;
9958;SDS011;5019;48.012;7.812;2023-01-01T17:31:17;7.47;;;6.20;;
9958;SDS011;5019;48.012;7.812;2023-01-01T17:33:46;8.33;;;4.47;;
9958;SDS011;5019;48.012;7.812;2023-01-01T17:36:12;12.67;;;6.10;;
9958;SDS011;5019;48.012;7.812;2023-01-01T17:38:38;6.00;;;4.10;;
9958;SDS011;5019;48.012;7.812;2023-01-01T17:41:09;5.33;;;2.90;;